sensor_id;sensor_type;location;lat;lon;timestamp;temperature;humidity
13433;DHT22;6789;47.678;9.158;2023-05-10T00:04:21;14.30;99.90
13433;DHT22;6789;47.678;9.158;2023-05-10T00:09:13;14.30;99.90
13433;DHT22;6789;47.678;9.158;2023-05-10T00:14:05;14.30;99.90
13433;DHT22;6789;47.678;9.158;2023-05-10T00:18:57;14.20;99.90
13433;DHT22;6789;47.678;9.158;2023-05-10T00:23:48;14.10;99.90
13433;DHT22;6789;47.678;9.158;2023-05-10T00:28:40;14.10;99.90
13433;DHT22;6789;47.678;9.158;2023-05-10T00:33:32;14.00;99.90
13433;DHT22;6789;47.678;9.158;2023-05-10T00:38:24;14.10;99.90
13433;DHT22;6789;47.678;9.158;2023-05-10T00:43:15;13.90;99.90
13433;DHT22;6789;47.678;9.158;2023-05-10T00:48:08;13.90;99.90
13433;DHT22;6789;47.678;9.158;2023-05-10T00:53:00;13.90;99.90
13433;DHT22;6789;47.678;9.158;2023-05-10T00:57:53;13.90;99.90
13433;DHT22;6789;47.678;9.158;2023-05-10T01:02:46;13.80;99.90
13433;DHT22;6789;47.678;9.158;2023-05-10T01:07:39;13.80;99.90
13433;DHT22;6789;47.678;9.158;2023-05-10T01:12:31;13.80;99.90
13433;DHT22;6789;47.678;9.158;2023-05-10T01:17:23;13.70;99.90
13433;DHT22;6789;47.678;9.158;2023-05-10T01:39:09;13.60;99.90
13433;DHT22;6789;47.678;9.158;2023-05-10T01:49:23;13.70;99.90
13433;DHT22;6789;47.678;9.158;2023-05-10T01:54:19;13.70;99.90
13433;DHT22;6789;47.678;9.158;2023-05-10T01:59:17;13.70;99.90
13433;DHT22;6789;47.678;9.158;2023-05-10T02:04:11;13.70;99.90
13433;DHT22;6789;47.678;9.158;2023-05-10T02:09:07;13.80;99.90
13433;DHT22;6789;47.678;9.158;2023-05-10T02:14:02;13.90;99.90
13433;DHT22;6789;47.678;9.158;2023-05-10T02:18:56;13.90;99.90
13433;DHT22;6789;47.678;9.158;2023-05-10T02:23:51;13.90;99.90
13433;DHT22;6789;47.678;9.158;2023-05-10T02:28:44;13.90;99.90
13433;DHT22;6789;47.678;9.158;2023-05-10T02:33:38;13.90;99.90
13433;DHT22;6789;47.678;9.158;2023-05-10T02:38:32;13.80;99.90
13433;DHT22;6789;47.678;9.158;2023-05-10T02:43:26;14.00;99.90
13433;DHT22;6789;47.678;9.158;2023-05-10T02:48:21;14.00;99.90
13433;DHT22;6789;47.678;9.158;2023-05-10T02:53:20;13.90;99.90
13433;DHT22;6789;47.678;9.158;2023-05-10T02:58:14;13.90;99.90
13433;DHT22;6789;47.678;9.158;2023-05-10T03:03:05;13.80;99.90
13433;DHT22;6789;47.678;9.158;2023-05-10T03:07:58;13.80;99.90
13433;DHT22;6789;47.678;9.158;2023-05-10T03:18:06;13.80;99.90
13433;DHT22;6789;47.678;9.158;2023-05-10T03:23:22;13.70;99.90
13433;DHT22;6789;47.678;9.158;2023-05-10T03:28:30;13.60;99.90
13433;DHT22;6789;47.678;9.158;2023-05-10T03:33:24;13.50;99.90
13433;DHT22;6789;47.678;9.158;2023-05-10T03:38:16;13.50;99.90
13433;DHT22;6789;47.678;9.158;2023-05-10T03:43:08;13.60;99.90
13433;DHT22;6789;47.678;9.158;2023-05-10T03:47:59;13.40;99.90
13433;DHT22;6789;47.678;9.158;2023-05-10T03:52:51;13.50;99.90
13433;DHT22;6789;47.678;9.158;2023-05-10T03:57:45;13.60;99.90
13433;DHT22;6789;47.678;9.158;2023-05-10T04:02:37;13.60;99.90
13433;DHT22;6789;47.678;9.158;2023-05-10T04:07:43;13.70;99.90
13433;DHT22;6789;47.678;9.158;2023-05-10T04:12:49;13.70;99.90
13433;DHT22;6789;47.678;9.158;2023-05-10T04:17:56;13.70;99.90
13433;DHT22;6789;47.678;9.158;2023-05-10T04:23:02;13.70;99.90
13433;DHT22;6789;47.678;9.158;2023-05-10T04:28:07;13.70;99.90
13433;DHT22;6789;47.678;9.158;2023-05-10T04:33:16;13.80;99.90
13433;DHT22;6789;47.678;9.158;2023-05-10T04:38:22;13.80;99.90
13433;DHT22;6789;47.678;9.158;2023-05-10T04:43:40;13.70;99.90
13433;DHT22;6789;47.678;9.158;2023-05-10T04:48:46;13.60;99.90
13433;DHT22;6789;47.678;9.158;2023-05-10T04:53:52;13.60;99.90
13433;DHT22;6789;47.678;9.158;2023-05-10T04:58:58;13.70;99.90
13433;DHT22;6789;47.678;9.158;2023-05-10T05:04:04;13.70;99.90
13433;DHT22;6789;47.678;9.158;2023-05-10T05:08:56;13.90;99.90
13433;DHT22;6789;47.678;9.158;2023-05-10T05:14:06;13.90;99.90
13433;DHT22;6789;47.678;9.158;2023-05-10T05:19:12;14.00;99.90
13433;DHT22;6789;47.678;9.158;2023-05-10T05:24:09;13.90;99.90
13433;DHT22;6789;47.678;9.158;2023-05-10T05:29:16;14.00;99.90
13433;DHT22;6789;47.678;9.158;2023-05-10T05:34:25;14.10;99.90
13433;DHT22;6789;47.678;9.158;2023-05-10T05:39:42;14.00;99.90
13433;DHT22;6789;47.678;9.158;2023-05-10T05:44:53;14.00;99.90
13433;DHT22;6789;47.678;9.158;2023-05-10T05:49:59;14.00;99.90
13433;DHT22;6789;47.678;9.158;2023-05-10T05:54:54;14.00;99.90
13433;DHT22;6789;47.678;9.158;2023-05-10T05:59:46;14.00;99.90
13433;DHT22;6789;47.678;9.158;2023-05-10T06:04:53;14.00;99.90
13433;DHT22;6789;47.678;9.158;2023-05-10T06:10:00;14.00;99.90
13433;DHT22;6789;47.678;9.158;2023-05-10T06:15:06;14.10;99.90
13433;DHT22;6789;47.678;9.158;2023-05-10T06:20:12;14.20;99.90
13433;DHT22;6789;47.678;9.158;2023-05-10T06:25:18;14.40;99.90
13433;DHT22;6789;47.678;9.158;2023-05-10T06:30:26;14.40;99.90
13433;DHT22;6789;47.678;9.158;2023-05-10T06:35:34;14.40;99.90
13433;DHT22;6789;47.678;9.158;2023-05-10T06:40:43;14.40;99.90
13433;DHT22;6789;47.678;9.158;2023-05-10T06:45:49;14.50;99.90
13433;DHT22;6789;47.678;9.158;2023-05-10T06:50:55;14.40;99.90
13433;DHT22;6789;47.678;9.158;2023-05-10T06:56:02;14.50;99.90
13433;DHT22;6789;47.678;9.158;2023-05-10T07:01:11;14.50;99.90
13433;DHT22;6789;47.678;9.158;2023-05-10T07:06:16;14.60;99.90
13433;DHT22;6789;47.678;9.158;2023-05-10T07:11:26;14.60;99.90
13433;DHT22;6789;47.678;9.158;2023-05-10T07:16:34;14.70;99.90
13433;DHT22;6789;47.678;9.158;2023-05-10T07:21:40;15.00;99.90
13433;DHT22;6789;47.678;9.158;2023-05-10T07:26:48;14.90;99.90
13433;DHT22;6789;47.678;9.158;2023-05-10T07:31:54;15.10;99.90
13433;DHT22;6789;47.678;9.158;2023-05-10T07:37:00;15.20;99.90
13433;DHT22;6789;47.678;9.158;2023-05-10T07:42:10;15.20;99.90
13433;DHT22;6789;47.678;9.158;2023-05-10T07:47:23;15.50;99.90
13433;DHT22;6789;47.678;9.158;2023-05-10T07:52:32;15.60;99.90
13433;DHT22;6789;47.678;9.158;2023-05-10T07:57:30;15.70;99.90
13433;DHT22;6789;47.678;9.158;2023-05-10T08:02:37;15.80;99.90
13433;DHT22;6789;47.678;9.158;2023-05-10T08:07:43;15.90;99.90
13433;DHT22;6789;47.678;9.158;2023-05-10T08:12:35;15.80;99.90
13433;DHT22;6789;47.678;9.158;2023-05-10T08:17:42;15.80;99.90
13433;DHT22;6789;47.678;9.158;2023-05-10T08:22:48;15.80;99.90
13433;DHT22;6789;47.678;9.158;2023-05-10T08:27:42;15.50;99.90
13433;DHT22;6789;47.678;9.158;2023-05-10T08:32:34;15.20;99.90
13433;DHT22;6789;47.678;9.158;2023-05-10T08:37:40;15.20;99.90
13433;DHT22;6789;47.678;9.158;2023-05-10T08:43:11;15.30;99.90
13433;DHT22;6789;47.678;9.158;2023-05-10T08:48:06;15.40;99.90
13433;DHT22;6789;47.678;9.158;2023-05-10T08:53:16;15.50;99.90
13433;DHT22;6789;47.678;9.158;2023-05-10T08:58:43;15.60;99.90
13433;DHT22;6789;47.678;9.158;2023-05-10T09:03:53;15.70;99.90
13433;DHT22;6789;47.678;9.158;2023-05-10T09:09:09;16.00;99.90
13433;DHT22;6789;47.678;9.158;2023-05-10T09:14:46;16.30;99.90
13433;DHT22;6789;47.678;9.158;2023-05-10T09:20:01;16.50;99.90
13433;DHT22;6789;47.678;9.158;2023-05-10T09:25:14;16.90;99.90
13433;DHT22;6789;47.678;9.158;2023-05-10T09:30:35;17.10;99.90
13433;DHT22;6789;47.678;9.158;2023-05-10T09:35:43;17.10;99.90
13433;DHT22;6789;47.678;9.158;2023-05-10T09:40:58;17.00;99.90
13433;DHT22;6789;47.678;9.158;2023-05-10T09:46:13;16.90;99.90
13433;DHT22;6789;47.678;9.158;2023-05-10T09:51:27;17.30;99.90
13433;DHT22;6789;47.678;9.158;2023-05-10T09:56:36;17.70;99.90
13433;DHT22;6789;47.678;9.158;2023-05-10T10:01:59;17.70;99.90
13433;DHT22;6789;47.678;9.158;2023-05-10T10:07:22;18.00;99.90
13433;DHT22;6789;47.678;9.158;2023-05-10T10:12:32;18.40;99.90
13433;DHT22;6789;47.678;9.158;2023-05-10T10:18:01;18.50;99.90
13433;DHT22;6789;47.678;9.158;2023-05-10T10:23:09;18.20;99.90
13433;DHT22;6789;47.678;9.158;2023-05-10T10:48:50;18.90;99.90
13433;DHT22;6789;47.678;9.158;2023-05-10T10:54:18;19.10;99.90
13433;DHT22;6789;47.678;9.158;2023-05-10T11:05:46;18.90;99.90
13433;DHT22;6789;47.678;9.158;2023-05-10T11:11:36;19.20;99.90
13433;DHT22;6789;47.678;9.158;2023-05-10T11:16:55;19.40;99.90
13433;DHT22;6789;47.678;9.158;2023-05-10T11:22:13;19.30;99.90
13433;DHT22;6789;47.678;9.158;2023-05-10T11:27:20;19.20;99.90
13433;DHT22;6789;47.678;9.158;2023-05-10T11:32:30;19.30;99.90
13433;DHT22;6789;47.678;9.158;2023-05-10T11:37:41;19.00;99.90
13433;DHT22;6789;47.678;9.158;2023-05-10T11:42:39;18.70;99.90
13433;DHT22;6789;47.678;9.158;2023-05-10T11:47:48;18.90;99.90
13433;DHT22;6789;47.678;9.158;2023-05-10T11:52:43;18.70;99.90
13433;DHT22;6789;47.678;9.158;2023-05-10T11:57:52;18.90;99.90
13433;DHT22;6789;47.678;9.158;2023-05-10T12:02:59;18.70;99.90
13433;DHT22;6789;47.678;9.158;2023-05-10T12:08:14;18.60;99.90
13433;DHT22;6789;47.678;9.158;2023-05-10T12:13:21;18.40;99.90
13433;DHT22;6789;47.678;9.158;2023-05-10T12:18:15;18.70;99.90
13433;DHT22;6789;47.678;9.158;2023-05-10T12:29:20;18.80;99.90
13433;DHT22;6789;47.678;9.158;2023-05-10T12:34:32;18.80;99.90
13433;DHT22;6789;47.678;9.158;2023-05-10T12:39:42;19.00;99.90
13433;DHT22;6789;47.678;9.158;2023-05-10T12:44:49;19.00;99.90
13433;DHT22;6789;47.678;9.158;2023-05-10T12:49:52;18.90;99.90
13433;DHT22;6789;47.678;9.158;2023-05-10T12:54:59;18.70;99.90
13433;DHT22;6789;47.678;9.158;2023-05-10T13:00:07;18.90;99.90
13433;DHT22;6789;47.678;9.158;2023-05-10T13:05:15;18.70;99.90
13433;DHT22;6789;47.678;9.158;2023-05-10T13:10:22;18.60;99.90
13433;DHT22;6789;47.678;9.158;2023-05-10T13:15:29;18.50;99.90
13433;DHT22;6789;47.678;9.158;2023-05-10T13:20:36;18.60;99.90
13433;DHT22;6789;47.678;9.158;2023-05-10T13:25:45;18.70;99.90
13433;DHT22;6789;47.678;9.158;2023-05-10T13:30:51;18.90;99.90
13433;DHT22;6789;47.678;9.158;2023-05-10T13:35:57;19.20;99.90
13433;DHT22;6789;47.678;9.158;2023-05-10T13:40:50;18.90;99.90
13433;DHT22;6789;47.678;9.158;2023-05-10T13:45:59;18.90;99.90
13433;DHT22;6789;47.678;9.158;2023-05-10T13:51:06;19.00;99.90
13433;DHT22;6789;47.678;9.158;2023-05-10T13:56:08;19.00;99.90
13433;DHT22;6789;47.678;9.158;2023-05-10T14:01:14;19.00;99.90
13433;DHT22;6789;47.678;9.158;2023-05-10T14:06:20;19.00;99.90
13433;DHT22;6789;47.678;9.158;2023-05-10T14:11:27;18.90;99.90
13433;DHT22;6789;47.678;9.158;2023-05-10T14:16:34;18.70;99.90
13433;DHT22;6789;47.678;9.158;2023-05-10T14:21:30;18.90;99.90
13433;DHT22;6789;47.678;9.158;2023-05-10T14:26:26;18.80;99.90
13433;DHT22;6789;47.678;9.158;2023-05-10T14:31:33;18.60;99.90
13433;DHT22;6789;47.678;9.158;2023-05-10T14:36:27;18.70;99.90
13433;DHT22;6789;47.678;9.158;2023-05-10T14:41:37;18.60;99.90
13433;DHT22;6789;47.678;9.158;2023-05-10T14:47:26;18.50;99.90
13433;DHT22;6789;47.678;9.158;2023-05-10T14:52:32;18.60;99.90
13433;DHT22;6789;47.678;9.158;2023-05-10T14:57:38;18.40;99.90
13433;DHT22;6789;47.678;9.158;2023-05-10T15:02:38;18.10;99.90
13433;DHT22;6789;47.678;9.158;2023-05-10T15:07:44;18.20;99.90
13433;DHT22;6789;47.678;9.158;2023-05-10T15:12:51;18.20;99.90
13433;DHT22;6789;47.678;9.158;2023-05-10T15:18:10;18.20;99.90
13433;DHT22;6789;47.678;9.158;2023-05-10T15:23:30;18.00;99.90
13433;DHT22;6789;47.678;9.158;2023-05-10T15:28:37;17.90;99.90
13433;DHT22;6789;47.678;9.158;2023-05-10T15:33:43;17.80;99.90
13433;DHT22;6789;47.678;9.158;2023-05-10T15:38:49;17.90;99.90
13433;DHT22;6789;47.678;9.158;2023-05-10T15:43:56;17.80;99.90
13433;DHT22;6789;47.678;9.158;2023-05-10T15:49:05;17.90;99.90
13433;DHT22;6789;47.678;9.158;2023-05-10T15:54:28;17.90;99.90
13433;DHT22;6789;47.678;9.158;2023-05-10T15:59:36;17.80;99.90
13433;DHT22;6789;47.678;9.158;2023-05-10T16:04:30;17.70;99.90
13433;DHT22;6789;47.678;9.158;2023-05-10T16:09:37;17.70;99.90
13433;DHT22;6789;47.678;9.158;2023-05-10T16:14:37;17.60;99.90
13433;DHT22;6789;47.678;9.158;2023-05-10T16:19:43;17.60;99.90
13433;DHT22;6789;47.678;9.158;2023-05-10T16:24:53;17.60;99.90
13433;DHT22;6789;47.678;9.158;2023-05-10T16:30:01;17.80;99.90
13433;DHT22;6789;47.678;9.158;2023-05-10T16:34:55;17.70;99.90
13433;DHT22;6789;47.678;9.158;2023-05-10T16:40:01;17.70;99.90
13433;DHT22;6789;47.678;9.158;2023-05-10T16:45:08;17.50;99.90
13433;DHT22;6789;47.678;9.158;2023-05-10T16:50:26;17.40;99.90
13433;DHT22;6789;47.678;9.158;2023-05-10T16:55:32;17.50;99.90
13433;DHT22;6789;47.678;9.158;2023-05-10T17:00:39;17.30;99.90
13433;DHT22;6789;47.678;9.158;2023-05-10T17:05:33;17.10;99.90
13433;DHT22;6789;47.678;9.158;2023-05-10T17:10:27;16.90;99.90
13433;DHT22;6789;47.678;9.158;2023-05-10T17:15:35;16.70;99.90
13433;DHT22;6789;47.678;9.158;2023-05-10T17:20:37;16.70;99.90
13433;DHT22;6789;47.678;9.158;2023-05-10T17:25:43;16.60;99.90
13433;DHT22;6789;47.678;9.158;2023-05-10T17:30:56;16.40;99.90
13433;DHT22;6789;47.678;9.158;2023-05-10T17:35:51;16.40;99.90
13433;DHT22;6789;47.678;9.158;2023-05-10T17:40:57;16.40;99.90
13433;DHT22;6789;47.678;9.158;2023-05-10T17:45:50;16.20;99.90
13433;DHT22;6789;47.678;9.158;2023-05-10T17:51:10;16.00;99.90
13433;DHT22;6789;47.678;9.158;2023-05-10T17:56:30;15.90;99.90
13433;DHT22;6789;47.678;9.158;2023-05-10T18:01:37;15.80;99.90
13433;DHT22;6789;47.678;9.158;2023-05-10T18:06:43;15.50;99.90
13433;DHT22;6789;47.678;9.158;2023-05-10T18:11:49;15.40;99.90
13433;DHT22;6789;47.678;9.158;2023-05-10T18:16:55;15.30;99.90
13433;DHT22;6789;47.678;9.158;2023-05-10T18:22:01;15.10;99.90
13433;DHT22;6789;47.678;9.158;2023-05-10T18:26:54;15.00;99.90
13433;DHT22;6789;47.678;9.158;2023-05-10T18:31:49;14.90;99.90
13433;DHT22;6789;47.678;9.158;2023-05-10T18:36:55;14.90;99.90
13433;DHT22;6789;47.678;9.158;2023-05-10T18:42:05;14.70;99.90
13433;DHT22;6789;47.678;9.158;2023-05-10T18:46:59;14.40;99.90
13433;DHT22;6789;47.678;9.158;2023-05-10T18:52:05;14.10;99.90
13433;DHT22;6789;47.678;9.158;2023-05-10T18:57:14;13.80;99.90
13433;DHT22;6789;47.678;9.158;2023-05-10T19:02:21;13.60;99.90
13433;DHT22;6789;47.678;9.158;2023-05-10T19:07:36;13.60;99.90
13433;DHT22;6789;47.678;9.158;2023-05-10T19:12:53;13.50;99.90
13433;DHT22;6789;47.678;9.158;2023-05-10T19:18:04;13.50;99.90
13433;DHT22;6789;47.678;9.158;2023-05-10T19:29:36;13.30;99.90
13433;DHT22;6789;47.678;9.158;2023-05-10T19:34:44;13.40;99.90
13433;DHT22;6789;47.678;9.158;2023-05-10T19:40:14;13.50;99.90
13433;DHT22;6789;47.678;9.158;2023-05-10T19:46:13;13.30;99.90
13433;DHT22;6789;47.678;9.158;2023-05-10T19:51:29;13.30;99.90
13433;DHT22;6789;47.678;9.158;2023-05-10T19:56:42;13.30;99.90
13433;DHT22;6789;47.678;9.158;2023-05-10T20:01:55;13.30;99.90
13433;DHT22;6789;47.678;9.158;2023-05-10T20:07:01;13.20;99.90
13433;DHT22;6789;47.678;9.158;2023-05-10T20:12:07;13.40;99.90
13433;DHT22;6789;47.678;9.158;2023-05-10T20:22:21;13.10;99.90
13433;DHT22;6789;47.678;9.158;2023-05-10T20:27:27;13.20;99.90
13433;DHT22;6789;47.678;9.158;2023-05-10T20:32:33;13.20;99.90
13433;DHT22;6789;47.678;9.158;2023-05-10T20:37:51;13.30;99.90
13433;DHT22;6789;47.678;9.158;2023-05-10T20:42:47;13.10;99.90
13433;DHT22;6789;47.678;9.158;2023-05-10T20:47:40;13.00;99.90
13433;DHT22;6789;47.678;9.158;2023-05-10T20:52:33;12.90;99.90
13433;DHT22;6789;47.678;9.158;2023-05-10T20:57:41;12.90;99.90
13433;DHT22;6789;47.678;9.158;2023-05-10T21:02:51;12.80;99.90
13433;DHT22;6789;47.678;9.158;2023-05-10T21:07:57;12.90;99.90
13433;DHT22;6789;47.678;9.158;2023-05-10T21:12:49;12.90;99.90
13433;DHT22;6789;47.678;9.158;2023-05-10T21:17:55;12.90;99.90
13433;DHT22;6789;47.678;9.158;2023-05-10T21:23:02;12.80;99.90
13433;DHT22;6789;47.678;9.158;2023-05-10T21:28:10;12.80;99.90
13433;DHT22;6789;47.678;9.158;2023-05-10T21:33:16;12.80;99.90
13433;DHT22;6789;47.678;9.158;2023-05-10T21:38:09;12.90;99.90
13433;DHT22;6789;47.678;9.158;2023-05-10T21:43:02;12.90;99.90
13433;DHT22;6789;47.678;9.158;2023-05-10T21:48:08;12.90;99.90
13433;DHT22;6789;47.678;9.158;2023-05-10T21:53:01;12.90;99.90
13433;DHT22;6789;47.678;9.158;2023-05-10T21:57:57;12.80;99.90
13433;DHT22;6789;47.678;9.158;2023-05-10T22:02:49;12.90;99.90
13433;DHT22;6789;47.678;9.158;2023-05-10T22:07:42;13.00;99.90
13433;DHT22;6789;47.678;9.158;2023-05-10T22:12:42;13.00;99.90
13433;DHT22;6789;47.678;9.158;2023-05-10T22:17:38;13.00;99.90
13433;DHT22;6789;47.678;9.158;2023-05-10T22:22:44;12.90;99.90
13433;DHT22;6789;47.678;9.158;2023-05-10T22:27:38;12.80;99.90
13433;DHT22;6789;47.678;9.158;2023-05-10T22:32:32;12.60;99.90
13433;DHT22;6789;47.678;9.158;2023-05-10T22:37:38;12.40;99.90
13433;DHT22;6789;47.678;9.158;2023-05-10T22:42:44;12.40;99.90
13433;DHT22;6789;47.678;9.158;2023-05-10T22:47:50;12.30;99.90
13433;DHT22;6789;47.678;9.158;2023-05-10T22:52:56;12.20;99.90
13433;DHT22;6789;47.678;9.158;2023-05-10T22:58:02;12.20;99.90
13433;DHT22;6789;47.678;9.158;2023-05-10T23:03:05;12.20;99.90
13433;DHT22;6789;47.678;9.158;2023-05-10T23:07:57;12.30;99.90
13433;DHT22;6789;47.678;9.158;2023-05-10T23:12:49;12.20;99.90
13433;DHT22;6789;47.678;9.158;2023-05-10T23:17:40;12.20;99.90
13433;DHT22;6789;47.678;9.158;2023-05-10T23:22:46;12.10;99.90
13433;DHT22;6789;47.678;9.158;2023-05-10T23:27:38;12.10;99.90
13433;DHT22;6789;47.678;9.158;2023-05-10T23:32:30;12.10;99.90
13433;DHT22;6789;47.678;9.158;2023-05-10T23:37:21;12.10;99.90
13433;DHT22;6789;47.678;9.158;2023-05-10T23:42:28;12.10;99.90
13433;DHT22;6789;47.678;9.158;2023-05-10T23:47:20;12.10;99.90
13433;DHT22;6789;47.678;9.158;2023-05-10T23:52:12;12.00;99.90
13433;DHT22;6789;47.678;9.158;2023-05-10T23:57:04;11.90;99.90
